sensor_id;sensor_type;location;lat;lon;timestamp;pressure;altitude;pressure_sealevel;temperature;humidity
40872;BME280;26591;43.264;26.940;2023-06-22T00:00:56;99193.97;;;24.76;63.05
40872;BME280;26591;43.264;26.940;2023-06-22T00:03:23;99202.78;;;24.66;62.79
40872;BME280;26591;43.264;26.940;2023-06-22T00:05:50;99208.53;;;24.47;63.66
40872;BME280;26591;43.264;26.940;2023-06-22T00:08:16;99207.78;;;24.52;63.78
40872;BME280;26591;43.264;26.940;2023-06-22T00:10:42;99205.94;;;24.58;63.47
40872;BME280;26591;43.264;26.940;2023-06-22T00:13:09;99200.28;;;24.59;63.38
40872;BME280;26591;43.264;26.940;2023-06-22T00:15:35;99205.25;;;24.45;64.17
40872;BME280;26591;43.264;26.940;2023-06-22T00:18:03;99203.19;;;24.52;63.26
40872;BME280;26591;43.264;26.940;2023-06-22T00:20:28;99208.28;;;24.49;63.84
40872;BME280;26591;43.264;26.940;2023-06-22T00:22:58;99210.22;;;24.53;63.78
40872;BME280;26591;43.264;26.940;2023-06-22T00:25:24;99211.81;;;24.49;63.72
40872;BME280;26591;43.264;26.940;2023-06-22T00:27:49;99210.28;;;24.59;63.84
40872;BME280;26591;43.264;26.940;2023-06-22T00:30:16;99214.09;;;24.63;63.92
40872;BME280;26591;43.264;26.940;2023-06-22T00:32:42;99211.34;;;24.58;63.42
40872;BME280;26591;43.264;26.940;2023-06-22T00:35:08;99210.97;;;24.71;63.03
40872;BME280;26591;43.264;26.940;2023-06-22T00:37:35;99206.13;;;24.73;62.97
40872;BME280;26591;43.264;26.940;2023-06-22T00:40:02;99204.03;;;24.80;62.25
40872;BME280;26591;43.264;26.940;2023-06-22T00:42:28;99202.69;;;24.83;62.20
40872;BME280;26591;43.264;26.940;2023-06-22T00:44:56;99192.09;;;24.76;62.59
40872;BME280;26591;43.264;26.940;2023-06-22T00:47:22;99206.63;;;23.81;64.41
40872;BME280;26591;43.264;26.940;2023-06-22T00:49:49;99205.22;;;22.35;69.53
40872;BME280;26591;43.264;26.940;2023-06-22T00:52:17;99202.28;;;21.25;73.42
40872;BME280;26591;43.264;26.940;2023-06-22T00:54:49;99208.06;;;21.76;73.48
40872;BME280;26591;43.264;26.940;2023-06-22T00:57:16;99207.41;;;22.09;73.31
40872;BME280;26591;43.264;26.940;2023-06-22T00:59:45;99206.16;;;22.12;74.51
40872;BME280;26591;43.264;26.940;2023-06-22T01:02:13;99207.31;;;22.57;72.74
40872;BME280;26591;43.264;26.940;2023-06-22T01:04:39;99218.19;;;22.91;71.64
40872;BME280;26591;43.264;26.940;2023-06-22T01:07:39;99216.16;;;23.15;71.21
40872;BME280;26591;43.264;26.940;2023-06-22T01:13:50;99208.00;;;23.44;68.93
40872;BME280;26591;43.264;26.940;2023-06-22T01:16:01;99222.22;;;23.57;68.64
40872;BME280;26591;43.264;26.940;2023-06-22T01:18:30;99222.97;;;23.52;68.78
40872;BME280;26591;43.264;26.940;2023-06-22T01:20:57;99227.38;;;23.58;69.05
40872;BME280;26591;43.264;26.940;2023-06-22T01:23:27;99224.31;;;23.72;69.31
40872;BME280;26591;43.264;26.940;2023-06-22T01:28:54;99224.25;;;23.67;68.01
40872;BME280;26591;43.264;26.940;2023-06-22T01:31:24;99222.28;;;23.79;68.68
40872;BME280;26591;43.264;26.940;2023-06-22T01:33:53;99229.72;;;23.89;68.04
40872;BME280;26591;43.264;26.940;2023-06-22T01:36:20;99224.03;;;23.90;68.00
40872;BME280;26591;43.264;26.940;2023-06-22T01:38:47;99227.97;;;24.00;67.35
40872;BME280;26591;43.264;26.940;2023-06-22T01:41:13;99224.72;;;23.81;67.65
40872;BME280;26591;43.264;26.940;2023-06-22T01:43:40;99224.75;;;23.64;68.22
40872;BME280;26591;43.264;26.940;2023-06-22T01:46:07;99226.88;;;23.61;68.64
40872;BME280;26591;43.264;26.940;2023-06-22T01:48:33;99221.16;;;23.41;68.39
40872;BME280;26591;43.264;26.940;2023-06-22T01:50:59;99212.91;;;23.30;68.65
40872;BME280;26591;43.264;26.940;2023-06-22T01:53:25;99212.00;;;23.25;69.07
40872;BME280;26591;43.264;26.940;2023-06-22T01:55:50;99212.50;;;23.22;68.27
40872;BME280;26591;43.264;26.940;2023-06-22T01:58:16;99215.59;;;23.13;68.27
40872;BME280;26591;43.264;26.940;2023-06-22T02:00:50;99210.94;;;23.26;68.58
40872;BME280;26591;43.264;26.940;2023-06-22T02:03:19;99212.75;;;23.20;68.73
40872;BME280;26591;43.264;26.940;2023-06-22T02:05:52;99208.56;;;23.29;67.75
40872;BME280;26591;43.264;26.940;2023-06-22T02:08:25;99212.81;;;23.42;66.87
40872;BME280;26591;43.264;26.940;2023-06-22T02:10:54;99219.19;;;23.53;67.13
40872;BME280;26591;43.264;26.940;2023-06-22T02:13:24;99208.72;;;23.57;67.10
40872;BME280;26591;43.264;26.940;2023-06-22T02:15:50;99212.88;;;23.65;66.24
40872;BME280;26591;43.264;26.940;2023-06-22T02:18:16;99207.41;;;23.59;66.62
40872;BME280;26591;43.264;26.940;2023-06-22T02:20:41;99217.22;;;23.66;65.98
40872;BME280;26591;43.264;26.940;2023-06-22T02:23:07;99217.13;;;23.60;66.65
40872;BME280;26591;43.264;26.940;2023-06-22T02:25:33;99217.16;;;23.43;66.91
40872;BME280;26591;43.264;26.940;2023-06-22T02:27:59;99225.09;;;23.50;66.10
40872;BME280;26591;43.264;26.940;2023-06-22T02:30:25;99218.97;;;23.38;66.18
40872;BME280;26591;43.264;26.940;2023-06-22T02:32:50;99215.44;;;23.37;65.74
40872;BME280;26591;43.264;26.940;2023-06-22T02:35:24;99223.53;;;23.37;64.65
40872;BME280;26591;43.264;26.940;2023-06-22T02:37:50;99228.03;;;23.49;65.37
40872;BME280;26591;43.264;26.940;2023-06-22T02:40:17;99241.78;;;23.47;66.11
40872;BME280;26591;43.264;26.940;2023-06-22T02:42:42;99240.31;;;23.56;66.23
40872;BME280;26591;43.264;26.940;2023-06-22T02:45:08;99250.88;;;23.24;66.34
40872;BME280;26591;43.264;26.940;2023-06-22T02:47:34;99254.19;;;22.03;71.31
40872;BME280;26591;43.264;26.940;2023-06-22T02:50:00;99262.13;;;21.39;75.94
40872;BME280;26591;43.264;26.940;2023-06-22T02:52:26;99263.44;;;22.07;74.71
40872;BME280;26591;43.264;26.940;2023-06-22T02:54:52;99261.00;;;22.59;73.03
40872;BME280;26591;43.264;26.940;2023-06-22T02:57:17;99264.41;;;23.12;70.93
40872;BME280;26591;43.264;26.940;2023-06-22T02:59:43;99261.69;;;23.58;70.09
40872;BME280;26591;43.264;26.940;2023-06-22T03:02:08;99267.19;;;23.85;69.67
40872;BME280;26591;43.264;26.940;2023-06-22T03:04:35;99272.50;;;24.14;68.47
40872;BME280;26591;43.264;26.940;2023-06-22T03:07:01;99280.38;;;24.16;67.50
40872;BME280;26591;43.264;26.940;2023-06-22T03:09:27;99278.44;;;24.33;67.77
40872;BME280;26591;43.264;26.940;2023-06-22T03:11:53;99282.72;;;24.51;67.38
40872;BME280;26591;43.264;26.940;2023-06-22T03:14:19;99278.47;;;24.61;67.71
40872;BME280;26591;43.264;26.940;2023-06-22T03:16:44;99277.22;;;24.68;67.19
40872;BME280;26591;43.264;26.940;2023-06-22T03:19:10;99269.59;;;24.88;66.04
40872;BME280;26591;43.264;26.940;2023-06-22T03:21:37;99269.72;;;24.98;65.70
40872;BME280;26591;43.264;26.940;2023-06-22T03:24:04;99265.25;;;25.14;64.99
40872;BME280;26591;43.264;26.940;2023-06-22T03:26:30;99271.16;;;25.38;64.11
40872;BME280;26591;43.264;26.940;2023-06-22T03:28:56;99278.13;;;25.62;63.17
40872;BME280;26591;43.264;26.940;2023-06-22T03:31:22;99275.88;;;25.91;62.40
40872;BME280;26591;43.264;26.940;2023-06-22T03:33:48;99274.31;;;26.05;61.04
40872;BME280;26591;43.264;26.940;2023-06-22T03:36:17;99276.94;;;26.33;59.72
40872;BME280;26591;43.264;26.940;2023-06-22T03:38:49;99278.34;;;26.51;58.29
40872;BME280;26591;43.264;26.940;2023-06-22T03:41:15;99280.56;;;26.59;57.01
40872;BME280;26591;43.264;26.940;2023-06-22T03:43:41;99277.97;;;26.95;55.73
40872;BME280;26591;43.264;26.940;2023-06-22T03:46:06;99281.78;;;27.36;53.79
40872;BME280;26591;43.264;26.940;2023-06-22T03:48:32;99293.81;;;27.45;53.40
40872;BME280;26591;43.264;26.940;2023-06-22T03:50:59;99290.22;;;27.91;51.67
40872;BME280;26591;43.264;26.940;2023-06-22T03:53:25;99289.03;;;28.33;51.02
40872;BME280;26591;43.264;26.940;2023-06-22T03:55:52;99295.94;;;28.76;49.60
40872;BME280;26591;43.264;26.940;2023-06-22T03:58:18;99300.41;;;29.06;48.74
40872;BME280;26591;43.264;26.940;2023-06-22T04:00:50;99298.38;;;29.22;49.01
40872;BME280;26591;43.264;26.940;2023-06-22T04:03:16;99307.81;;;29.41;50.49
40872;BME280;26591;43.264;26.940;2023-06-22T04:05:44;99303.13;;;29.46;50.90
40872;BME280;26591;43.264;26.940;2023-06-22T04:08:09;99295.84;;;29.31;51.29
40872;BME280;26591;43.264;26.940;2023-06-22T04:10:35;99291.50;;;29.30;51.48
40872;BME280;26591;43.264;26.940;2023-06-22T04:13:00;99291.34;;;29.80;51.12
40872;BME280;26591;43.264;26.940;2023-06-22T04:15:26;99292.13;;;30.16;50.26
40872;BME280;26591;43.264;26.940;2023-06-22T04:17:51;99299.09;;;30.46;48.69
40872;BME280;26591;43.264;26.940;2023-06-22T04:20:17;99295.78;;;30.54;49.00
40872;BME280;26591;43.264;26.940;2023-06-22T04:22:42;99308.69;;;30.43;49.53
40872;BME280;26591;43.264;26.940;2023-06-22T04:25:08;99304.75;;;30.55;49.71
40872;BME280;26591;43.264;26.940;2023-06-22T04:27:34;99305.50;;;30.60;49.96
40872;BME280;26591;43.264;26.940;2023-06-22T04:30:07;99309.53;;;31.07;49.16
40872;BME280;26591;43.264;26.940;2023-06-22T04:32:33;99310.00;;;31.47;48.29
40872;BME280;26591;43.264;26.940;2023-06-22T04:35:02;99297.34;;;31.84;47.30
40872;BME280;26591;43.264;26.940;2023-06-22T04:37:27;99304.44;;;31.85;46.44
40872;BME280;26591;43.264;26.940;2023-06-22T04:39:53;99307.75;;;31.68;47.07
40872;BME280;26591;43.264;26.940;2023-06-22T04:42:18;99303.72;;;31.79;46.85
40872;BME280;26591;43.264;26.940;2023-06-22T04:44:43;99307.59;;;31.92;46.17
40872;BME280;26591;43.264;26.940;2023-06-22T04:47:09;99316.22;;;31.86;46.76
40872;BME280;26591;43.264;26.940;2023-06-22T04:49:36;99310.88;;;32.22;46.27
40872;BME280;26591;43.264;26.940;2023-06-22T04:52:07;99315.03;;;32.62;45.62
40872;BME280;26591;43.264;26.940;2023-06-22T04:54:34;99322.56;;;33.07;44.29
40872;BME280;26591;43.264;26.940;2023-06-22T04:57:04;99316.50;;;32.96;45.11
40872;BME280;26591;43.264;26.940;2023-06-22T04:59:31;99319.94;;;33.01;44.27
40872;BME280;26591;43.264;26.940;2023-06-22T05:01:57;99320.59;;;32.70;45.17
40872;BME280;26591;43.264;26.940;2023-06-22T05:04:24;99325.69;;;32.35;46.18
40872;BME280;26591;43.264;26.940;2023-06-22T05:06:50;99320.16;;;31.79;47.08
40872;BME280;26591;43.264;26.940;2023-06-22T05:09:16;99321.69;;;31.86;47.06
40872;BME280;26591;43.264;26.940;2023-06-22T05:11:43;99324.44;;;31.86;47.61
40872;BME280;26591;43.264;26.940;2023-06-22T05:14:08;99321.53;;;32.52;46.66
40872;BME280;26591;43.264;26.940;2023-06-22T05:16:34;99309.03;;;32.74;46.57
40872;BME280;26591;43.264;26.940;2023-06-22T05:18:59;99317.09;;;33.07;45.67
40872;BME280;26591;43.264;26.940;2023-06-22T05:21:26;99327.38;;;33.46;44.91
40872;BME280;26591;43.264;26.940;2023-06-22T05:23:53;99331.03;;;33.87;43.72
40872;BME280;26591;43.264;26.940;2023-06-22T05:26:20;99329.94;;;33.66;43.79
40872;BME280;26591;43.264;26.940;2023-06-22T05:28:46;99326.94;;;33.76;43.23
40872;BME280;26591;43.264;26.940;2023-06-22T05:31:16;99331.75;;;33.70;43.78
40872;BME280;26591;43.264;26.940;2023-06-22T05:33:43;99334.88;;;33.55;42.78
40872;BME280;26591;43.264;26.940;2023-06-22T05:36:09;99330.72;;;33.21;44.61
40872;BME280;26591;43.264;26.940;2023-06-22T05:38:36;99334.22;;;33.12;44.48
40872;BME280;26591;43.264;26.940;2023-06-22T05:41:02;99334.03;;;33.31;44.50
40872;BME280;26591;43.264;26.940;2023-06-22T05:43:28;99336.69;;;33.37;44.40
40872;BME280;26591;43.264;26.940;2023-06-22T05:45:53;99340.59;;;33.67;43.62
40872;BME280;26591;43.264;26.940;2023-06-22T05:48:19;99329.19;;;33.97;42.88
40872;BME280;26591;43.264;26.940;2023-06-22T05:50:44;99329.09;;;34.19;42.36
40872;BME280;26591;43.264;26.940;2023-06-22T05:53:10;99330.13;;;34.32;42.36
40872;BME280;26591;43.264;26.940;2023-06-22T05:55:35;99336.09;;;33.94;42.79
40872;BME280;26591;43.264;26.940;2023-06-22T05:58:01;99333.50;;;33.98;42.44
40872;BME280;26591;43.264;26.940;2023-06-22T06:00:29;99321.88;;;34.32;41.03
40872;BME280;26591;43.264;26.940;2023-06-22T06:02:54;99335.59;;;33.92;42.82
40872;BME280;26591;43.264;26.940;2023-06-22T06:05:20;99331.63;;;34.47;42.07
40872;BME280;26591;43.264;26.940;2023-06-22T06:07:45;99344.28;;;34.66;39.98
40872;BME280;26591;43.264;26.940;2023-06-22T06:10:11;99339.13;;;34.82;39.76
40872;BME280;26591;43.264;26.940;2023-06-22T06:12:37;99336.22;;;34.78;38.12
40872;BME280;26591;43.264;26.940;2023-06-22T06:15:05;99344.28;;;34.66;38.46
40872;BME280;26591;43.264;26.940;2023-06-22T06:17:30;99340.91;;;34.29;38.70
40872;BME280;26591;43.264;26.940;2023-06-22T06:19:56;99339.38;;;34.05;40.50
40872;BME280;26591;43.264;26.940;2023-06-22T06:22:22;99346.53;;;33.60;41.74
40872;BME280;26591;43.264;26.940;2023-06-22T06:24:49;99337.31;;;33.20;42.54
40872;BME280;26591;43.264;26.940;2023-06-22T06:27:15;99345.63;;;33.06;41.85
40872;BME280;26591;43.264;26.940;2023-06-22T06:29:43;99344.34;;;32.61;42.83
40872;BME280;26591;43.264;26.940;2023-06-22T06:32:11;99343.81;;;32.73;40.48
40872;BME280;26591;43.264;26.940;2023-06-22T06:34:37;99341.50;;;32.24;39.86
40872;BME280;26591;43.264;26.940;2023-06-22T06:37:03;99336.81;;;32.25;40.04
40872;BME280;26591;43.264;26.940;2023-06-22T06:39:28;99334.75;;;32.50;39.03
40872;BME280;26591;43.264;26.940;2023-06-22T06:41:54;99337.44;;;32.64;38.32
40872;BME280;26591;43.264;26.940;2023-06-22T06:44:20;99336.84;;;32.67;39.14
40872;BME280;26591;43.264;26.940;2023-06-22T06:46:45;99334.94;;;33.04;38.17
40872;BME280;26591;43.264;26.940;2023-06-22T06:49:10;99335.88;;;33.36;38.49
40872;BME280;26591;43.264;26.940;2023-06-22T06:51:36;99338.56;;;33.50;36.92
40872;BME280;26591;43.264;26.940;2023-06-22T06:54:01;99327.44;;;33.78;36.30
40872;BME280;26591;43.264;26.940;2023-06-22T06:56:28;99330.72;;;34.20;36.50
40872;BME280;26591;43.264;26.940;2023-06-22T06:58:55;99336.69;;;34.63;36.13
40872;BME280;26591;43.264;26.940;2023-06-22T07:01:21;99331.31;;;34.58;35.51
40872;BME280;26591;43.264;26.940;2023-06-22T07:03:47;99325.56;;;34.28;36.57
40872;BME280;26591;43.264;26.940;2023-06-22T07:06:13;99318.59;;;34.21;36.12
40872;BME280;26591;43.264;26.940;2023-06-22T07:08:39;99322.53;;;33.89;37.38
40872;BME280;26591;43.264;26.940;2023-06-22T07:11:05;99320.78;;;34.42;36.33
40872;BME280;26591;43.264;26.940;2023-06-22T07:13:31;99329.91;;;34.87;34.50
40872;BME280;26591;43.264;26.940;2023-06-22T07:15:56;99329.59;;;34.88;35.31
40872;BME280;26591;43.264;26.940;2023-06-22T07:18:22;99334.25;;;34.79;34.45
40872;BME280;26591;43.264;26.940;2023-06-22T07:20:47;99324.78;;;35.11;34.80
40872;BME280;26591;43.264;26.940;2023-06-22T07:23:13;99328.81;;;35.58;34.46
40872;BME280;26591;43.264;26.940;2023-06-22T07:25:38;99334.31;;;35.58;34.40
40872;BME280;26591;43.264;26.940;2023-06-22T07:28:05;99326.13;;;35.88;34.29
40872;BME280;26591;43.264;26.940;2023-06-22T07:30:32;99335.03;;;35.94;33.73
40872;BME280;26591;43.264;26.940;2023-06-22T07:32:58;99331.19;;;35.77;33.70
40872;BME280;26591;43.264;26.940;2023-06-22T07:35:24;99324.44;;;35.66;33.73
40872;BME280;26591;43.264;26.940;2023-06-22T07:37:50;99325.38;;;35.61;33.40
40872;BME280;26591;43.264;26.940;2023-06-22T07:40:15;99325.75;;;35.51;35.00
40872;BME280;26591;43.264;26.940;2023-06-22T07:42:41;99329.16;;;34.37;37.25
40872;BME280;26591;43.264;26.940;2023-06-22T07:45:07;99324.19;;;33.76;38.60
40872;BME280;26591;43.264;26.940;2023-06-22T07:47:34;99326.78;;;33.13;38.63
40872;BME280;26591;43.264;26.940;2023-06-22T07:50:00;99329.34;;;33.32;39.16
40872;BME280;26591;43.264;26.940;2023-06-22T07:52:27;99330.63;;;34.03;37.35
40872;BME280;26591;43.264;26.940;2023-06-22T07:54:53;99330.59;;;34.34;36.30
40872;BME280;26591;43.264;26.940;2023-06-22T07:57:19;99321.16;;;32.95;37.76
40872;BME280;26591;43.264;26.940;2023-06-22T07:59:45;99326.44;;;32.92;38.33
40872;BME280;26591;43.264;26.940;2023-06-22T08:02:11;99325.94;;;31.92;39.51
40872;BME280;26591;43.264;26.940;2023-06-22T08:04:37;99315.78;;;31.45;39.96
40872;BME280;26591;43.264;26.940;2023-06-22T08:07:02;99321.44;;;31.16;42.00
40872;BME280;26591;43.264;26.940;2023-06-22T08:09:30;99327.88;;;31.58;39.71
40872;BME280;26591;43.264;26.940;2023-06-22T08:11:56;99322.88;;;31.79;40.06
40872;BME280;26591;43.264;26.940;2023-06-22T08:14:24;99328.16;;;31.76;39.77
40872;BME280;26591;43.264;26.940;2023-06-22T08:16:50;99323.31;;;31.54;40.11
40872;BME280;26591;43.264;26.940;2023-06-22T08:19:16;99324.59;;;31.42;40.23
40872;BME280;26591;43.264;26.940;2023-06-22T08:21:41;99317.72;;;31.78;39.71
40872;BME280;26591;43.264;26.940;2023-06-22T08:24:07;99328.50;;;32.02;39.50
40872;BME280;26591;43.264;26.940;2023-06-22T08:26:33;99320.03;;;31.71;41.17
40872;BME280;26591;43.264;26.940;2023-06-22T08:29:04;99315.06;;;31.73;39.12
40872;BME280;26591;43.264;26.940;2023-06-22T08:31:31;99317.66;;;31.97;39.04
40872;BME280;26591;43.264;26.940;2023-06-22T08:33:58;99317.34;;;31.99;38.27
40872;BME280;26591;43.264;26.940;2023-06-22T08:36:24;99320.72;;;32.23;37.75
40872;BME280;26591;43.264;26.940;2023-06-22T08:38:50;99323.25;;;32.62;37.76
40872;BME280;26591;43.264;26.940;2023-06-22T08:41:17;99321.44;;;33.08;37.71
40872;BME280;26591;43.264;26.940;2023-06-22T08:43:43;99311.97;;;33.14;37.08
40872;BME280;26591;43.264;26.940;2023-06-22T08:46:10;99326.41;;;32.55;36.44
40872;BME280;26591;43.264;26.940;2023-06-22T08:48:36;99318.09;;;32.32;36.58
40872;BME280;26591;43.264;26.940;2023-06-22T08:51:02;99314.00;;;32.71;36.21
40872;BME280;26591;43.264;26.940;2023-06-22T08:53:28;99323.28;;;32.48;36.89
40872;BME280;26591;43.264;26.940;2023-06-22T08:55:54;99319.66;;;31.91;37.43
40872;BME280;26591;43.264;26.940;2023-06-22T08:58:19;99319.69;;;32.05;37.77
40872;BME280;26591;43.264;26.940;2023-06-22T09:00:47;99314.03;;;32.44;37.88
40872;BME280;26591;43.264;26.940;2023-06-22T09:03:13;99310.50;;;32.80;36.71
40872;BME280;26591;43.264;26.940;2023-06-22T09:05:38;99299.50;;;33.30;35.85
40872;BME280;26591;43.264;26.940;2023-06-22T09:08:04;99298.91;;;33.33;35.45
40872;BME280;26591;43.264;26.940;2023-06-22T09:10:30;99302.56;;;33.83;34.75
40872;BME280;26591;43.264;26.940;2023-06-22T09:12:56;99308.47;;;33.68;34.82
40872;BME280;26591;43.264;26.940;2023-06-22T09:15:21;99308.34;;;33.41;35.91
40872;BME280;26591;43.264;26.940;2023-06-22T09:17:47;99313.72;;;32.03;36.46
40872;BME280;26591;43.264;26.940;2023-06-22T09:20:13;99312.09;;;32.02;37.20
40872;BME280;26591;43.264;26.940;2023-06-22T09:22:39;99305.28;;;31.53;38.15
40872;BME280;26591;43.264;26.940;2023-06-22T09:25:05;99300.31;;;31.55;38.62
40872;BME280;26591;43.264;26.940;2023-06-22T09:27:31;99295.44;;;31.99;37.96
40872;BME280;26591;43.264;26.940;2023-06-22T09:29:56;99294.44;;;32.08;37.75
40872;BME280;26591;43.264;26.940;2023-06-22T09:32:24;99298.69;;;31.87;38.47
40872;BME280;26591;43.264;26.940;2023-06-22T09:34:50;99293.53;;;31.99;37.41
40872;BME280;26591;43.264;26.940;2023-06-22T09:37:15;99292.06;;;32.71;37.43
40872;BME280;26591;43.264;26.940;2023-06-22T09:39:41;99293.50;;;32.83;37.01
40872;BME280;26591;43.264;26.940;2023-06-22T09:42:08;99293.50;;;32.69;37.30
40872;BME280;26591;43.264;26.940;2023-06-22T09:44:34;99293.00;;;32.67;37.81
40872;BME280;26591;43.264;26.940;2023-06-22T09:47:00;99290.03;;;32.77;37.53
40872;BME280;26591;43.264;26.940;2023-06-22T09:49:25;99294.22;;;32.61;36.92
40872;BME280;26591;43.264;26.940;2023-06-22T09:51:51;99285.91;;;33.25;36.65
40872;BME280;26591;43.264;26.940;2023-06-22T09:54:17;99293.78;;;33.63;36.01
40872;BME280;26591;43.264;26.940;2023-06-22T09:56:43;99290.41;;;33.67;35.14
40872;BME280;26591;43.264;26.940;2023-06-22T09:59:08;99293.91;;;33.13;35.62
40872;BME280;26591;43.264;26.940;2023-06-22T10:01:34;99283.38;;;33.06;36.17
40872;BME280;26591;43.264;26.940;2023-06-22T10:03:59;99287.72;;;33.07;36.19
40872;BME280;26591;43.264;26.940;2023-06-22T10:06:25;99285.53;;;32.95;36.43
40872;BME280;26591;43.264;26.940;2023-06-22T10:08:51;99283.81;;;32.49;36.65
40872;BME280;26591;43.264;26.940;2023-06-22T10:11:17;99277.50;;;32.62;36.52
40872;BME280;26591;43.264;26.940;2023-06-22T10:13:42;99281.66;;;32.96;35.93
40872;BME280;26591;43.264;26.940;2023-06-22T10:16:08;99274.94;;;33.25;37.02
40872;BME280;26591;43.264;26.940;2023-06-22T10:18:33;99278.66;;;33.75;35.07
40872;BME280;26591;43.264;26.940;2023-06-22T10:20:59;99284.63;;;34.08;33.93
40872;BME280;26591;43.264;26.940;2023-06-22T10:23:25;99281.81;;;34.31;34.06
40872;BME280;26591;43.264;26.940;2023-06-22T10:25:50;99283.94;;;33.94;33.91
40872;BME280;26591;43.264;26.940;2023-06-22T10:28:16;99275.31;;;34.18;34.19
40872;BME280;26591;43.264;26.940;2023-06-22T10:30:42;99266.41;;;34.13;34.00
40872;BME280;26591;43.264;26.940;2023-06-22T10:33:08;99269.38;;;33.62;35.19
40872;BME280;26591;43.264;26.940;2023-06-22T10:35:36;99280.38;;;33.16;35.09
40872;BME280;26591;43.264;26.940;2023-06-22T10:38:05;99273.66;;;32.35;36.65
40872;BME280;26591;43.264;26.940;2023-06-22T10:40:31;99262.63;;;32.77;36.27
40872;BME280;26591;43.264;26.940;2023-06-22T10:42:57;99264.03;;;32.89;36.17
40872;BME280;26591;43.264;26.940;2023-06-22T10:45:22;99262.94;;;33.35;35.76
40872;BME280;26591;43.264;26.940;2023-06-22T10:47:48;99265.47;;;33.31;36.17
40872;BME280;26591;43.264;26.940;2023-06-22T10:50:14;99264.00;;;33.02;35.03
40872;BME280;26591;43.264;26.940;2023-06-22T10:52:39;99253.84;;;33.26;35.39
40872;BME280;26591;43.264;26.940;2023-06-22T10:55:08;99256.03;;;33.38;35.09
40872;BME280;26591;43.264;26.940;2023-06-22T10:57:33;99252.25;;;33.56;34.13
40872;BME280;26591;43.264;26.940;2023-06-22T10:59:59;99258.88;;;33.87;33.95
40872;BME280;26591;43.264;26.940;2023-06-22T11:02:25;99258.88;;;33.10;35.25
40872;BME280;26591;43.264;26.940;2023-06-22T11:04:51;99262.34;;;33.24;36.30
40872;BME280;26591;43.264;26.940;2023-06-22T11:07:16;99253.97;;;33.43;36.26
40872;BME280;26591;43.264;26.940;2023-06-22T11:09:44;99254.16;;;33.47;35.35
40872;BME280;26591;43.264;26.940;2023-06-22T11:12:10;99256.78;;;33.61;34.14
40872;BME280;26591;43.264;26.940;2023-06-22T11:14:35;99250.22;;;33.71;34.13
40872;BME280;26591;43.264;26.940;2023-06-22T11:17:01;99251.25;;;34.33;33.96
40872;BME280;26591;43.264;26.940;2023-06-22T11:19:26;99253.59;;;34.66;33.32
40872;BME280;26591;43.264;26.940;2023-06-22T11:21:52;99249.78;;;34.27;34.49
40872;BME280;26591;43.264;26.940;2023-06-22T11:24:17;99248.13;;;33.99;34.66
40872;BME280;26591;43.264;26.940;2023-06-22T11:26:43;99259.44;;;33.75;34.49
40872;BME280;26591;43.264;26.940;2023-06-22T11:29:11;99251.63;;;33.59;34.13
40872;BME280;26591;43.264;26.940;2023-06-22T11:31:36;99242.13;;;33.97;34.46
40872;BME280;26591;43.264;26.940;2023-06-22T11:34:02;99245.72;;;33.75;34.16
40872;BME280;26591;43.264;26.940;2023-06-22T11:36:29;99242.25;;;33.92;33.95
40872;BME280;26591;43.264;26.940;2023-06-22T11:38:58;99244.25;;;34.00;33.73
40872;BME280;26591;43.264;26.940;2023-06-22T11:41:23;99243.47;;;33.77;34.04
40872;BME280;26591;43.264;26.940;2023-06-22T11:43:49;99244.13;;;33.42;34.98
40872;BME280;26591;43.264;26.940;2023-06-22T11:46:14;99248.03;;;33.27;34.88
40872;BME280;26591;43.264;26.940;2023-06-22T11:48:40;99236.31;;;33.13;35.45
40872;BME280;26591;43.264;26.940;2023-06-22T11:51:05;99243.31;;;33.19;34.97
40872;BME280;26591;43.264;26.940;2023-06-22T11:53:31;99245.88;;;33.38;35.16
40872;BME280;26591;43.264;26.940;2023-06-22T11:55:57;99237.69;;;33.47;34.67
40872;BME280;26591;43.264;26.940;2023-06-22T11:58:22;99237.00;;;33.18;34.67
40872;BME280;26591;43.264;26.940;2023-06-22T12:00:48;99238.56;;;33.11;35.09
40872;BME280;26591;43.264;26.940;2023-06-22T12:03:14;99232.97;;;32.56;35.93
40872;BME280;26591;43.264;26.940;2023-06-22T12:05:59;99234.03;;;32.33;35.87
40872;BME280;26591;43.264;26.940;2023-06-22T12:08:25;99244.47;;;32.17;36.49
40872;BME280;26591;43.264;26.940;2023-06-22T12:10:50;99236.63;;;32.24;36.45
40872;BME280;26591;43.264;26.940;2023-06-22T12:13:16;99237.97;;;31.85;37.02
40872;BME280;26591;43.264;26.940;2023-06-22T12:15:41;99237.78;;;31.95;37.08
40872;BME280;26591;43.264;26.940;2023-06-22T12:18:07;99235.97;;;32.04;37.08
40872;BME280;26591;43.264;26.940;2023-06-22T12:20:34;99232.72;;;32.30;36.43
40872;BME280;26591;43.264;26.940;2023-06-22T12:22:59;99240.31;;;32.05;35.95
40872;BME280;26591;43.264;26.940;2023-06-22T12:25:25;99243.13;;;31.86;36.39
40872;BME280;26591;43.264;26.940;2023-06-22T12:27:50;99232.91;;;32.20;36.30
40872;BME280;26591;43.264;26.940;2023-06-22T12:30:16;99230.34;;;32.51;35.48
40872;BME280;26591;43.264;26.940;2023-06-22T12:32:42;99228.78;;;32.96;34.80
40872;BME280;26591;43.264;26.940;2023-06-22T12:35:08;99219.28;;;33.79;34.37
40872;BME280;26591;43.264;26.940;2023-06-22T12:37:42;99219.81;;;33.90;34.17
40872;BME280;26591;43.264;26.940;2023-06-22T12:40:10;99216.19;;;34.21;34.07
40872;BME280;26591;43.264;26.940;2023-06-22T12:42:36;99224.44;;;33.81;33.94
40872;BME280;26591;43.264;26.940;2023-06-22T12:45:02;99222.00;;;34.19;34.16
40872;BME280;26591;43.264;26.940;2023-06-22T12:47:27;99212.00;;;33.83;32.23
40872;BME280;26591;43.264;26.940;2023-06-22T12:49:53;99213.13;;;33.73;33.32
40872;BME280;26591;43.264;26.940;2023-06-22T12:52:18;99213.75;;;33.39;33.52